sensor_id;sensor_type;location;lat;lon;timestamp;pressure;altitude;pressure_sealevel;temperature;humidity
75794;BME280;64418;47.536;19.074;2023-08-20T13:23:36;100616.91;;;36.81;34.08
75794;BME280;64418;47.536;19.074;2023-08-20T13:26:03;100616.91;;;36.81;34.08
75794;BME280;64418;47.536;19.074;2023-08-20T13:28:29;100615.53;;;36.71;33.66
75794;BME280;64418;47.536;19.074;2023-08-20T13:30:56;100609.25;;;36.58;34.40
75794;BME280;64418;47.536;19.074;2023-08-20T13:33:22;100612.78;;;36.33;34.80
75794;BME280;64418;47.536;19.074;2023-08-20T13:36:08;100612.56;;;36.64;33.94
75794;BME280;64418;47.536;19.074;2023-08-20T13:38:38;100610.75;;;36.75;33.01
75794;BME280;64418;47.536;19.074;2023-08-20T13:41:07;100608.62;;;36.27;33.32
75794;BME280;64418;47.536;19.074;2023-08-20T13:43:33;100611.75;;;37.09;32.76
75794;BME280;64418;47.536;19.074;2023-08-20T13:46:00;100607.88;;;37.21;32.08
75794;BME280;64418;47.536;19.074;2023-08-20T13:48:46;100593.78;;;36.98;31.97
75794;BME280;64418;47.536;19.074;2023-08-20T13:51:12;100597.69;;;36.44;32.50
75794;BME280;64418;47.536;19.074;2023-08-20T13:54:07;100599.59;;;36.82;31.83
75794;BME280;64418;47.536;19.074;2023-08-20T13:56:34;100592.81;;;36.45;32.10
75794;BME280;64418;47.536;19.074;2023-08-20T13:59:00;100592.91;;;36.48;32.24
75794;BME280;64418;47.536;19.074;2023-08-20T14:01:26;100593.81;;;37.01;31.99
75794;BME280;64418;47.536;19.074;2023-08-20T14:03:52;100587.84;;;36.15;33.15
75794;BME280;64418;47.536;19.074;2023-08-20T14:06:39;100591.69;;;36.07;33.63
75794;BME280;64418;47.536;19.074;2023-08-20T14:09:06;100580.97;;;36.36;31.86
75794;BME280;64418;47.536;19.074;2023-08-20T14:11:32;100580.88;;;35.90;33.29
75794;BME280;64418;47.536;19.074;2023-08-20T14:14:17;100575.81;;;36.41;32.77
75794;BME280;64418;47.536;19.074;2023-08-20T14:16:43;100577.31;;;36.12;34.22
75794;BME280;64418;47.536;19.074;2023-08-20T14:19:09;100579.09;;;35.63;34.13
75794;BME280;64418;47.536;19.074;2023-08-20T14:21:36;100565.78;;;36.63;32.73
75794;BME280;64418;47.536;19.074;2023-08-20T14:24:02;100577.38;;;36.58;32.78
75794;BME280;64418;47.536;19.074;2023-08-20T14:26:29;100577.69;;;36.11;33.73
75794;BME280;64418;47.536;19.074;2023-08-20T14:29:15;100571.63;;;36.32;33.32
75794;BME280;64418;47.536;19.074;2023-08-20T14:31:41;100573.56;;;36.08;34.13
75794;BME280;64418;47.536;19.074;2023-08-20T14:34:27;100566.19;;;35.27;35.37
75794;BME280;64418;47.536;19.074;2023-08-20T14:36:53;100566.91;;;35.97;34.03
75794;BME280;64418;47.536;19.074;2023-08-20T14:39:19;100578.12;;;36.13;33.35
75794;BME280;64418;47.536;19.074;2023-08-20T14:42:07;100567.59;;;35.91;33.66
75794;BME280;64418;47.536;19.074;2023-08-20T14:44:33;100567.78;;;36.01;33.51
75794;BME280;64418;47.536;19.074;2023-08-20T14:46:59;100563.19;;;35.93;33.73
75794;BME280;64418;47.536;19.074;2023-08-20T14:49:25;100570.75;;;36.08;33.55
75794;BME280;64418;47.536;19.074;2023-08-20T14:51:50;100557.19;;;35.56;34.52
75794;BME280;64418;47.536;19.074;2023-08-20T14:54:36;100563.09;;;35.16;34.54
75794;BME280;64418;47.536;19.074;2023-08-20T14:57:10;100559.94;;;35.02;35.05
75794;BME280;64418;47.536;19.074;2023-08-20T14:59:36;100553.81;;;35.51;34.96
75794;BME280;64418;47.536;19.074;2023-08-20T15:02:03;100559.59;;;35.58;34.97
75794;BME280;64418;47.536;19.074;2023-08-20T15:04:30;100552.50;;;34.94;36.25
75794;BME280;64418;47.536;19.074;2023-08-20T15:07:16;100553.06;;;34.68;36.72
75794;BME280;64418;47.536;19.074;2023-08-20T15:09:42;100563.94;;;35.17;36.70
75794;BME280;64418;47.536;19.074;2023-08-20T15:12:12;100562.09;;;34.74;37.63
75794;BME280;64418;47.536;19.074;2023-08-20T15:15:02;100555.06;;;34.68;37.41
75794;BME280;64418;47.536;19.074;2023-08-20T15:17:48;100560.75;;;35.03;37.12
75794;BME280;64418;47.536;19.074;2023-08-20T15:20:14;100556.16;;;34.48;38.01
75794;BME280;64418;47.536;19.074;2023-08-20T15:22:40;100555.16;;;34.71;37.92
75794;BME280;64418;47.536;19.074;2023-08-20T15:25:26;100554.03;;;34.60;38.48
75794;BME280;64418;47.536;19.074;2023-08-20T15:27:53;100554.69;;;34.54;38.54
75794;BME280;64418;47.536;19.074;2023-08-20T15:30:39;100553.41;;;33.64;40.73
75794;BME280;64418;47.536;19.074;2023-08-20T15:33:26;100553.56;;;33.83;40.09
75794;BME280;64418;47.536;19.074;2023-08-20T15:35:53;100557.12;;;33.96;39.97
75794;BME280;64418;47.536;19.074;2023-08-20T15:38:21;100555.41;;;33.52;40.36
75794;BME280;64418;47.536;19.074;2023-08-20T15:40:47;100559.03;;;33.52;40.62
75794;BME280;64418;47.536;19.074;2023-08-20T15:43:18;100553.50;;;33.04;41.30
75794;BME280;64418;47.536;19.074;2023-08-20T15:45:44;100555.00;;;33.01;41.63
75794;BME280;64418;47.536;19.074;2023-08-20T15:48:12;100551.22;;;33.46;40.80
75794;BME280;64418;47.536;19.074;2023-08-20T15:50:57;100549.63;;;33.08;40.51
75794;BME280;64418;47.536;19.074;2023-08-20T15:53:24;100551.12;;;33.06;40.64
75794;BME280;64418;47.536;19.074;2023-08-20T15:55:49;100550.19;;;33.02;40.72
75794;BME280;64418;47.536;19.074;2023-08-20T16:00:52;100527.56;;;32.70;41.14
75794;BME280;64418;47.536;19.074;2023-08-20T16:03:18;100555.22;;;32.60;41.45
75794;BME280;64418;47.536;19.074;2023-08-20T16:05:44;100544.12;;;32.63;41.94
75794;BME280;64418;47.536;19.074;2023-08-20T16:08:10;100546.59;;;32.65;42.00
75794;BME280;64418;47.536;19.074;2023-08-20T16:10:39;100543.50;;;32.45;42.14
75794;BME280;64418;47.536;19.074;2023-08-20T16:13:28;100549.72;;;32.51;41.88
75794;BME280;64418;47.536;19.074;2023-08-20T16:16:19;100548.28;;;32.45;42.68
75794;BME280;64418;47.536;19.074;2023-08-20T16:19:05;100544.72;;;32.12;43.18
75794;BME280;64418;47.536;19.074;2023-08-20T16:21:31;100546.97;;;32.18;43.50
75794;BME280;64418;47.536;19.074;2023-08-20T16:24:17;100538.22;;;31.99;43.73
75794;BME280;64418;47.536;19.074;2023-08-20T16:26:43;100549.44;;;31.99;43.83
75794;BME280;64418;47.536;19.074;2023-08-20T16:29:09;100542.28;;;32.10;43.82
75794;BME280;64418;47.536;19.074;2023-08-20T16:31:38;100549.75;;;32.18;44.07
75794;BME280;64418;47.536;19.074;2023-08-20T16:34:04;100555.50;;;32.10;44.31
75794;BME280;64418;47.536;19.074;2023-08-20T16:36:30;100550.34;;;32.12;44.36
75794;BME280;64418;47.536;19.074;2023-08-20T16:38:56;100554.12;;;31.95;44.65
75794;BME280;64418;47.536;19.074;2023-08-20T16:41:22;100556.00;;;32.03;44.26
75794;BME280;64418;47.536;19.074;2023-08-20T16:44:09;100534.53;;;31.74;44.96
75794;BME280;64418;47.536;19.074;2023-08-20T16:47:04;100556.09;;;31.94;44.75
75794;BME280;64418;47.536;19.074;2023-08-20T16:49:31;100558.25;;;31.77;45.16
75794;BME280;64418;47.536;19.074;2023-08-20T16:51:58;100556.88;;;31.83;45.10
75794;BME280;64418;47.536;19.074;2023-08-20T16:54:25;100558.66;;;31.87;45.17
75794;BME280;64418;47.536;19.074;2023-08-20T16:56:51;100560.84;;;31.82;45.39
75794;BME280;64418;47.536;19.074;2023-08-20T16:59:19;100553.50;;;31.57;46.43
75794;BME280;64418;47.536;19.074;2023-08-20T17:02:09;100533.22;;;31.51;45.75
75794;BME280;64418;47.536;19.074;2023-08-20T17:04:35;100563.81;;;31.65;45.88
75794;BME280;64418;47.536;19.074;2023-08-20T17:07:01;100564.41;;;31.49;46.20
75794;BME280;64418;47.536;19.074;2023-08-20T17:09:48;100561.31;;;31.42;46.10
75794;BME280;64418;47.536;19.074;2023-08-20T17:12:13;100561.25;;;31.30;45.99
75794;BME280;64418;47.536;19.074;2023-08-20T17:14:39;100558.19;;;31.23;46.54
75794;BME280;64418;47.536;19.074;2023-08-20T17:17:28;100553.22;;;31.20;46.82
75794;BME280;64418;47.536;19.074;2023-08-20T17:19:54;100553.91;;;31.17;46.80
75794;BME280;64418;47.536;19.074;2023-08-20T17:22:20;100550.66;;;31.15;46.52
75794;BME280;64418;47.536;19.074;2023-08-20T17:24:46;100555.47;;;31.06;46.67
75794;BME280;64418;47.536;19.074;2023-08-20T17:27:12;100560.94;;;30.94;47.29
75794;BME280;64418;47.536;19.074;2023-08-20T17:29:38;100558.72;;;30.79;47.68
75794;BME280;64418;47.536;19.074;2023-08-20T17:32:05;100551.88;;;30.68;47.84
75794;BME280;64418;47.536;19.074;2023-08-20T17:34:33;100556.03;;;30.62;47.70
75794;BME280;64418;47.536;19.074;2023-08-20T17:36:59;100550.31;;;30.49;48.03
75794;BME280;64418;47.536;19.074;2023-08-20T17:39:47;100552.94;;;30.37;48.72
75794;BME280;64418;47.536;19.074;2023-08-20T17:42:13;100557.25;;;30.26;48.97
75794;BME280;64418;47.536;19.074;2023-08-20T17:44:39;100549.72;;;30.18;49.36
75794;BME280;64418;47.536;19.074;2023-08-20T17:47:05;100555.69;;;30.08;50.22
75794;BME280;64418;47.536;19.074;2023-08-20T17:49:33;100552.72;;;29.96;49.97
75794;BME280;64418;47.536;19.074;2023-08-20T17:52:02;100543.84;;;29.77;50.12
75794;BME280;64418;47.536;19.074;2023-08-20T17:54:28;100550.44;;;29.81;50.72
75794;BME280;64418;47.536;19.074;2023-08-20T17:56:54;100549.28;;;29.82;49.71
75794;BME280;64418;47.536;19.074;2023-08-20T17:59:20;100554.03;;;29.73;50.20
75794;BME280;64418;47.536;19.074;2023-08-20T18:01:46;100550.25;;;29.77;49.66
75794;BME280;64418;47.536;19.074;2023-08-20T18:04:12;100552.91;;;29.65;50.33
75794;BME280;64418;47.536;19.074;2023-08-20T18:06:39;100552.56;;;29.58;50.22
75794;BME280;64418;47.536;19.074;2023-08-20T18:09:05;100562.59;;;29.50;50.36
75794;BME280;64418;47.536;19.074;2023-08-20T18:11:30;100549.47;;;29.59;50.84
75794;BME280;64418;47.536;19.074;2023-08-20T18:14:17;100558.31;;;29.61;50.71
75794;BME280;64418;47.536;19.074;2023-08-20T18:16:43;100556.84;;;29.55;51.28
75794;BME280;64418;47.536;19.074;2023-08-20T18:19:09;100570.16;;;29.58;51.74
75794;BME280;64418;47.536;19.074;2023-08-20T18:21:59;100572.63;;;29.43;51.97
75794;BME280;64418;47.536;19.074;2023-08-20T18:24:45;100574.75;;;29.37;52.33
75794;BME280;64418;47.536;19.074;2023-08-20T18:27:11;100576.56;;;29.33;53.28
75794;BME280;64418;47.536;19.074;2023-08-20T18:29:58;100590.16;;;29.26;53.67
75794;BME280;64418;47.536;19.074;2023-08-20T18:32:24;100588.16;;;29.18;54.02
75794;BME280;64418;47.536;19.074;2023-08-20T18:34:50;100593.09;;;29.21;53.94
75794;BME280;64418;47.536;19.074;2023-08-20T18:37:18;100582.91;;;29.08;54.46
75794;BME280;64418;47.536;19.074;2023-08-20T18:39:43;100596.50;;;29.09;53.98
75794;BME280;64418;47.536;19.074;2023-08-20T18:42:10;100602.87;;;29.01;54.14
75794;BME280;64418;47.536;19.074;2023-08-20T18:44:37;100601.88;;;28.89;54.15
75794;BME280;64418;47.536;19.074;2023-08-20T18:47:03;100608.47;;;28.93;53.92
75794;BME280;64418;47.536;19.074;2023-08-20T18:49:29;100604.81;;;28.84;54.19
75794;BME280;64418;47.536;19.074;2023-08-20T18:51:55;100598.81;;;28.68;54.01
75794;BME280;64418;47.536;19.074;2023-08-20T18:54:24;100611.16;;;28.76;55.79
75794;BME280;64418;47.536;19.074;2023-08-20T18:56:50;100606.41;;;28.76;55.08
75794;BME280;64418;47.536;19.074;2023-08-20T18:59:36;100609.53;;;28.52;54.80
75794;BME280;64418;47.536;19.074;2023-08-20T19:02:04;100602.59;;;28.41;55.12
75794;BME280;64418;47.536;19.074;2023-08-20T19:04:31;100612.63;;;28.42;55.05
75794;BME280;64418;47.536;19.074;2023-08-20T19:06:57;100613.75;;;28.41;55.34
75794;BME280;64418;47.536;19.074;2023-08-20T19:09:28;100608.19;;;28.41;55.45
75794;BME280;64418;47.536;19.074;2023-08-20T19:11:54;100617.53;;;28.45;55.91
75794;BME280;64418;47.536;19.074;2023-08-20T19:14:20;100616.53;;;28.41;55.94
75794;BME280;64418;47.536;19.074;2023-08-20T19:16:46;100616.03;;;28.39;56.21
75794;BME280;64418;47.536;19.074;2023-08-20T19:19:12;100620.47;;;28.40;56.28
75794;BME280;64418;47.536;19.074;2023-08-20T19:21:39;100622.25;;;28.14;57.04
75794;BME280;64418;47.536;19.074;2023-08-20T19:24:25;100616.09;;;27.81;57.86
75794;BME280;64418;47.536;19.074;2023-08-20T19:26:53;100622.22;;;27.92;57.71
75794;BME280;64418;47.536;19.074;2023-08-20T19:29:22;100623.78;;;27.98;57.89
75794;BME280;64418;47.536;19.074;2023-08-20T19:31:50;100627.44;;;27.85;58.27
75794;BME280;64418;47.536;19.074;2023-08-20T19:34:16;100619.59;;;27.87;58.33
75794;BME280;64418;47.536;19.074;2023-08-20T19:36:42;100624.34;;;27.86;58.21
75794;BME280;64418;47.536;19.074;2023-08-20T19:39:08;100623.50;;;27.86;58.60
75794;BME280;64418;47.536;19.074;2023-08-20T19:41:35;100637.75;;;27.84;58.63
75794;BME280;64418;47.536;19.074;2023-08-20T19:44:02;100636.13;;;27.69;58.98
75794;BME280;64418;47.536;19.074;2023-08-20T19:46:31;100639.25;;;27.68;59.44
75794;BME280;64418;47.536;19.074;2023-08-20T19:48:56;100640.06;;;27.68;59.78
75794;BME280;64418;47.536;19.074;2023-08-20T19:51:22;100639.06;;;27.64;59.95
75794;BME280;64418;47.536;19.074;2023-08-20T19:53:48;100650.19;;;27.64;59.65
75794;BME280;64418;47.536;19.074;2023-08-20T19:56:17;100644.63;;;27.64;59.85
75794;BME280;64418;47.536;19.074;2023-08-20T20:04:00;100642.41;;;27.25;62.20
75794;BME280;64418;47.536;19.074;2023-08-20T20:06:46;100627.16;;;27.09;62.58
75794;BME280;64418;47.536;19.074;2023-08-20T20:09:13;100650.31;;;27.05;62.79
75794;BME280;64418;47.536;19.074;2023-08-20T20:11:40;100657.03;;;27.04;63.49
75794;BME280;64418;47.536;19.074;2023-08-20T20:14:07;100658.25;;;26.84;63.87
75794;BME280;64418;47.536;19.074;2023-08-20T20:16:34;100661.88;;;26.85;64.70
75794;BME280;64418;47.536;19.074;2023-08-20T20:19:02;100656.59;;;26.83;64.46
75794;BME280;64418;47.536;19.074;2023-08-20T20:21:48;100656.09;;;26.95;64.01
75794;BME280;64418;47.536;19.074;2023-08-20T20:24:15;100664.94;;;27.24;63.07
75794;BME280;64418;47.536;19.074;2023-08-20T20:26:41;100662.50;;;27.09;63.72
75794;BME280;64418;47.536;19.074;2023-08-20T20:29:27;100658.88;;;26.95;63.61
75794;BME280;64418;47.536;19.074;2023-08-20T20:31:54;100666.50;;;26.89;63.54
75794;BME280;64418;47.536;19.074;2023-08-20T20:34:22;100660.72;;;26.86;63.77
75794;BME280;64418;47.536;19.074;2023-08-20T20:36:48;100649.16;;;26.65;64.05
75794;BME280;64418;47.536;19.074;2023-08-20T20:39:16;100657.50;;;26.65;64.17
75794;BME280;64418;47.536;19.074;2023-08-20T20:41:45;100629.56;;;26.56;63.88
75794;BME280;64418;47.536;19.074;2023-08-20T20:44:11;100666.25;;;26.72;63.87
75794;BME280;64418;47.536;19.074;2023-08-20T20:46:37;100661.19;;;26.60;64.23
75794;BME280;64418;47.536;19.074;2023-08-20T20:49:06;100667.75;;;26.51;64.67
75794;BME280;64418;47.536;19.074;2023-08-20T20:51:34;100663.87;;;26.33;65.26
75794;BME280;64418;47.536;19.074;2023-08-20T20:54:03;100666.88;;;26.18;66.08
75794;BME280;64418;47.536;19.074;2023-08-20T20:56:29;100667.19;;;26.35;65.65
75794;BME280;64418;47.536;19.074;2023-08-20T20:58:56;100665.94;;;26.27;66.00
75794;BME280;64418;47.536;19.074;2023-08-20T21:01:22;100661.78;;;26.25;65.99
75794;BME280;64418;47.536;19.074;2023-08-20T21:03:48;100673.31;;;26.18;66.15
75794;BME280;64418;47.536;19.074;2023-08-20T21:06:15;100661.63;;;26.35;65.58
75794;BME280;64418;47.536;19.074;2023-08-20T21:08:42;100665.69;;;26.43;65.72
75794;BME280;64418;47.536;19.074;2023-08-20T21:11:08;100664.03;;;26.55;65.17
75794;BME280;64418;47.536;19.074;2023-08-20T21:13:34;100660.25;;;26.51;65.28
75794;BME280;64418;47.536;19.074;2023-08-20T21:16:00;100668.66;;;26.46;65.96
75794;BME280;64418;47.536;19.074;2023-08-20T21:18:46;100673.41;;;26.46;65.99
75794;BME280;64418;47.536;19.074;2023-08-20T21:21:12;100672.13;;;26.38;66.41
75794;BME280;64418;47.536;19.074;2023-08-20T21:23:38;100661.22;;;26.28;66.93
75794;BME280;64418;47.536;19.074;2023-08-20T21:26:06;100678.38;;;26.30;67.28
75794;BME280;64418;47.536;19.074;2023-08-20T21:28:32;100668.41;;;26.29;67.18
75794;BME280;64418;47.536;19.074;2023-08-20T21:30:59;100671.63;;;26.36;67.30
75794;BME280;64418;47.536;19.074;2023-08-20T21:33:25;100673.59;;;26.36;67.18
75794;BME280;64418;47.536;19.074;2023-08-20T21:35:52;100678.56;;;26.52;66.51
75794;BME280;64418;47.536;19.074;2023-08-20T21:38:38;100677.13;;;26.55;65.91
75794;BME280;64418;47.536;19.074;2023-08-20T21:41:06;100686.44;;;26.13;67.81
75794;BME280;64418;47.536;19.074;2023-08-20T21:43:32;100685.16;;;26.05;68.33
75794;BME280;64418;47.536;19.074;2023-08-20T21:45:58;100684.13;;;26.20;67.83
75794;BME280;64418;47.536;19.074;2023-08-20T21:48:24;100682.91;;;25.88;68.90
75794;BME280;64418;47.536;19.074;2023-08-20T21:50:50;100682.84;;;25.94;68.71
75794;BME280;64418;47.536;19.074;2023-08-20T21:53:16;100677.19;;;25.99;68.11
75794;BME280;64418;47.536;19.074;2023-08-20T21:55:52;100680.03;;;26.12;67.63
75794;BME280;64418;47.536;19.074;2023-08-20T21:58:20;100682.53;;;25.76;69.08
75794;BME280;64418;47.536;19.074;2023-08-20T22:01:06;100680.75;;;25.85;68.82
75794;BME280;64418;47.536;19.074;2023-08-20T22:03:32;100685.19;;;25.44;70.38
75794;BME280;64418;47.536;19.074;2023-08-20T22:06:18;100683.66;;;25.33;70.98
75794;BME280;64418;47.536;19.074;2023-08-20T22:09:06;100682.81;;;25.32;70.86
75794;BME280;64418;47.536;19.074;2023-08-20T22:11:34;100687.38;;;25.23;71.47
75794;BME280;64418;47.536;19.074;2023-08-20T22:14:03;100694.72;;;25.14;71.67
75794;BME280;64418;47.536;19.074;2023-08-20T22:16:50;100687.22;;;25.15;72.00
75794;BME280;64418;47.536;19.074;2023-08-20T22:19:19;100671.91;;;24.93;72.05
75794;BME280;64418;47.536;19.074;2023-08-20T22:21:47;100623.47;;;24.62;72.63
75794;BME280;64418;47.536;19.074;2023-08-20T22:24:14;100696.88;;;24.93;73.27
75794;BME280;64418;47.536;19.074;2023-08-20T22:26:40;100694.72;;;24.85;74.00
75794;BME280;64418;47.536;19.074;2023-08-20T22:29:27;100686.16;;;24.82;74.15
75794;BME280;64418;47.536;19.074;2023-08-20T22:31:56;100700.59;;;24.84;74.69
75794;BME280;64418;47.536;19.074;2023-08-20T22:34:25;100688.75;;;24.73;75.19
75794;BME280;64418;47.536;19.074;2023-08-20T22:36:51;100694.56;;;24.72;75.50
75794;BME280;64418;47.536;19.074;2023-08-20T22:39:40;100698.94;;;24.78;75.55
75794;BME280;64418;47.536;19.074;2023-08-20T22:42:06;100697.06;;;24.73;75.86
75794;BME280;64418;47.536;19.074;2023-08-20T22:44:34;100699.28;;;24.71;75.79
75794;BME280;64418;47.536;19.074;2023-08-20T22:46:59;100693.03;;;24.61;75.85
75794;BME280;64418;47.536;19.074;2023-08-20T22:49:26;100694.44;;;24.58;76.14
75794;BME280;64418;47.536;19.074;2023-08-20T22:51:52;100696.06;;;24.59;76.46
75794;BME280;64418;47.536;19.074;2023-08-20T22:54:18;100693.63;;;24.58;76.56
75794;BME280;64418;47.536;19.074;2023-08-20T22:56:44;100689.47;;;24.55;76.79
75794;BME280;64418;47.536;19.074;2023-08-20T22:59:10;100689.47;;;24.55;76.90
75794;BME280;64418;47.536;19.074;2023-08-20T23:01:37;100689.47;;;24.55;77.36
75794;BME280;64418;47.536;19.074;2023-08-20T23:04:04;100685.91;;;24.55;77.16
75794;BME280;64418;47.536;19.074;2023-08-20T23:06:29;100675.09;;;24.53;77.21
75794;BME280;64418;47.536;19.074;2023-08-20T23:08:55;100679.78;;;24.53;77.08
75794;BME280;64418;47.536;19.074;2023-08-20T23:11:24;100679.59;;;24.44;77.32
75794;BME280;64418;47.536;19.074;2023-08-20T23:13:50;100684.84;;;24.45;77.38
75794;BME280;64418;47.536;19.074;2023-08-20T23:16:16;100685.78;;;24.36;78.06
75794;BME280;64418;47.536;19.074;2023-08-20T23:18:43;100681.88;;;24.37;78.09
75794;BME280;64418;47.536;19.074;2023-08-20T23:21:09;100673.09;;;24.30;78.79
75794;BME280;64418;47.536;19.074;2023-08-20T23:23:55;100675.84;;;24.30;78.79
75794;BME280;64418;47.536;19.074;2023-08-20T23:26:21;100688.09;;;24.24;80.45
75794;BME280;64418;47.536;19.074;2023-08-20T23:29:10;100661.13;;;24.01;80.95
75794;BME280;64418;47.536;19.074;2023-08-20T23:31:57;100681.50;;;24.10;81.23
75794;BME280;64418;47.536;19.074;2023-08-20T23:34:25;100675.47;;;24.03;81.55
75794;BME280;64418;47.536;19.074;2023-08-20T23:36:52;100682.75;;;23.93;81.88
75794;BME280;64418;47.536;19.074;2023-08-20T23:39:18;100688.03;;;23.90;82.88
75794;BME280;64418;47.536;19.074;2023-08-20T23:41:47;100693.88;;;23.83;83.73
75794;BME280;64418;47.536;19.074;2023-08-20T23:44:13;100693.94;;;23.73;84.80
75794;BME280;64418;47.536;19.074;2023-08-20T23:46:39;100692.94;;;23.59;87.04
75794;BME280;64418;47.536;19.074;2023-08-20T23:49:27;100688.50;;;23.53;87.18
75794;BME280;64418;47.536;19.074;2023-08-20T23:51:53;100683.88;;;23.43;87.35
75794;BME280;64418;47.536;19.074;2023-08-20T23:54:39;100691.31;;;23.48;86.45
75794;BME280;64418;47.536;19.074;2023-08-20T23:57:24;100689.69;;;23.42;86.41
75794;BME280;64418;47.536;19.074;2023-08-20T23:59:50;100691.91;;;23.45;85.92
